createdAt,value
2023-03-20T00:01:26.538Z,252.27
2023-03-20T00:03:53.683Z,243.93
2023-03-20T00:06:24.331Z,242.33
2023-03-20T00:08:54.031Z,248.50
2023-03-20T00:11:36.457Z,238.03
2023-03-20T00:14:10.778Z,243.73
2023-03-20T00:16:47.290Z,246.10
2023-03-20T00:19:31.610Z,238.83
2023-03-20T00:21:58.595Z,249.57
2023-03-20T00:24:26.699Z,253.70
2023-03-20T00:26:54.250Z,252.77
2023-03-20T00:29:31.158Z,252.27
2023-03-20T00:31:59.301Z,243.00
2023-03-20T00:34:32.611Z,243.27
2023-03-20T00:37:00.190Z,237.07
2023-03-20T00:39:29.946Z,241.93
2023-03-20T00:42:08.272Z,238.47
2023-03-20T00:44:55.719Z,254.73
2023-03-20T00:47:25.581Z,250.40
2023-03-20T00:49:54.640Z,230.53
2023-03-20T00:52:23.145Z,243.67
2023-03-20T00:54:52.136Z,235.57
2023-03-20T00:57:27.125Z,240.23
2023-03-20T01:00:01.387Z,233.93
2023-03-20T01:02:30.020Z,234.43
2023-03-20T01:04:58.218Z,242.83
2023-03-20T01:07:26.588Z,223.37
2023-03-20T01:09:53.583Z,238.57
2023-03-20T01:12:20.590Z,235.30
2023-03-20T01:14:54.674Z,236.10
2023-03-20T01:17:23.707Z,229.60
2023-03-20T01:19:51.038Z,230.83
2023-03-20T01:22:18.267Z,235.13
2023-03-20T01:24:45.707Z,226.77
2023-03-20T01:27:16.559Z,230.97
2023-03-20T01:29:44.105Z,232.23
2023-03-20T01:32:16.714Z,233.20
2023-03-20T01:34:47.822Z,235.57
2023-03-20T01:37:26.683Z,236.73
2023-03-20T01:39:56.564Z,232.67
2023-03-20T01:42:24.155Z,229.83
2023-03-20T01:44:51.740Z,233.93
2023-03-20T01:47:23.601Z,235.83
2023-03-20T01:50:22.577Z,233.53
2023-03-20T01:52:59.615Z,225.57
2023-03-20T01:55:27.506Z,226.47
2023-03-20T01:58:05.374Z,226.27
2023-03-20T02:00:34.769Z,230.00
2023-03-20T02:03:02.136Z,222.87
2023-03-20T02:05:59.875Z,219.83
2023-03-20T02:08:49.320Z,224.87
2023-03-20T02:11:22.537Z,221.07
2023-03-20T02:13:55.847Z,222.60
2023-03-20T02:16:24.410Z,223.67
2023-03-20T02:19:23.993Z,218.60
2023-03-20T02:22:07.900Z,217.63
2023-03-20T02:25:02.209Z,215.90
2023-03-20T02:27:44.435Z,217.13
2023-03-20T02:31:01.890Z,211.63
2023-03-20T02:34:38.649Z,219.07
2023-03-20T02:37:42.170Z,212.93
2023-03-20T02:40:50.957Z,216.17
2023-03-20T02:43:48.206Z,216.97
2023-03-20T02:46:47.876Z,218.13
2023-03-20T02:50:05.763Z,216.43
2023-03-20T02:52:47.593Z,220.10
2023-03-20T02:55:40.235Z,212.77
2023-03-20T02:58:19.106Z,215.43
2023-03-20T03:01:11.940Z,219.47
2023-03-20T03:03:55.963Z,214.07
2023-03-20T03:06:31.568Z,213.70
2023-03-20T03:09:46.166Z,212.63
2023-03-20T03:12:19.606Z,216.13
2023-03-20T03:14:52.663Z,213.03
2023-03-20T03:17:23.897Z,214.67
2023-03-20T03:19:57.619Z,220.77
2023-03-20T03:22:26.109Z,213.30
2023-03-20T03:24:55.309Z,208.07
2023-03-20T03:27:28.141Z,214.23
2023-03-20T03:30:20.477Z,220.07
2023-03-20T03:33:20.610Z,220.67
2023-03-20T03:35:51.813Z,213.10
2023-03-20T03:38:35.226Z,211.60
2023-03-20T03:41:27.871Z,222.53
2023-03-20T03:44:13.685Z,216.13
2023-03-20T03:47:07.041Z,221.83
2023-03-20T03:49:40.876Z,211.20
2023-03-20T03:52:14.707Z,213.33
2023-03-20T03:54:48.132Z,219.43
2023-03-20T03:57:37.975Z,213.40
2023-03-20T04:00:12.008Z,218.57
2023-03-20T04:02:48.107Z,217.87
2023-03-20T04:05:17.075Z,213.93
2023-03-20T04:07:48.830Z,213.87
2023-03-20T04:10:17.676Z,212.63
2023-03-20T04:12:45.665Z,211.57
2023-03-20T04:15:14.638Z,221.97
2023-03-20T04:17:42.508Z,220.77
2023-03-20T04:20:12.456Z,212.83
2023-03-20T04:22:40.613Z,215.27
2023-03-20T04:25:17.344Z,218.83
2023-03-20T04:27:44.272Z,210.30
2023-03-20T04:30:19.358Z,210.10
2023-03-20T04:33:21.688Z,213.37
2023-03-20T04:36:23.846Z,210.87
2023-03-20T04:38:54.116Z,213.57
2023-03-20T04:41:22.385Z,213.30
2023-03-20T04:43:53.506Z,213.97
2023-03-20T04:46:20.512Z,222.87
2023-03-20T04:48:47.766Z,216.87
2023-03-20T04:51:15.982Z,218.30
2023-03-20T04:53:50.292Z,216.27
2023-03-20T04:56:17.819Z,208.67
2023-03-20T04:58:45.891Z,215.40
2023-03-20T05:01:14.140Z,206.73
2023-03-20T05:03:41.446Z,213.50
2023-03-20T05:06:09.400Z,210.47
2023-03-20T05:08:40.159Z,215.80
2023-03-20T05:11:08.217Z,221.90
2023-03-20T05:13:56.155Z,212.57
2023-03-20T05:16:41.536Z,217.83
2023-03-20T05:19:40.890Z,215.27
2023-03-20T05:22:07.801Z,213.13
2023-03-20T05:24:49.939Z,210.93
2023-03-20T05:27:37.254Z,217.17
2023-03-20T05:30:22.879Z,205.77
2023-03-20T05:33:08.438Z,216.27
2023-03-20T05:35:54.045Z,209.93
2023-03-20T05:38:56.179Z,199.73
2023-03-20T05:41:25.868Z,225.30
2023-03-20T05:44:24.794Z,221.10
2023-03-20T05:47:05.462Z,219.37
2023-03-20T05:49:53.151Z,225.53
2023-03-20T05:52:26.680Z,226.13
2023-03-20T05:55:12.284Z,223.30
2023-03-20T05:57:57.910Z,223.53
2023-03-20T06:00:41.261Z,221.43
2023-03-20T06:03:47.590Z,223.87
2023-03-20T06:06:20.511Z,209.73
2023-03-20T06:08:51.182Z,213.17
2023-03-20T06:11:18.513Z,211.80
2023-03-20T06:13:45.732Z,212.00
2023-03-20T06:16:13.033Z,213.00
2023-03-20T06:18:40.164Z,219.47
2023-03-20T06:21:09.429Z,221.03
2023-03-20T06:23:36.916Z,212.97
2023-03-20T06:26:05.198Z,223.73
2023-03-20T06:28:43.603Z,218.93
2023-03-20T06:31:10.569Z,218.90
2023-03-20T06:33:38.121Z,215.47
2023-03-20T06:36:05.572Z,220.00
2023-03-20T06:38:33.102Z,218.83
2023-03-20T06:41:06.981Z,224.03
2023-03-20T06:43:34.728Z,237.33
2023-03-20T06:46:01.768Z,226.10
2023-03-20T06:48:31.284Z,234.30
2023-03-20T06:50:58.347Z,236.67
2023-03-20T06:53:31.995Z,232.53
2023-03-20T06:56:08.266Z,225.27
2023-03-20T06:58:35.300Z,212.50
2023-03-20T07:01:03.166Z,218.07
2023-03-20T07:03:30.189Z,217.30
2023-03-20T07:05:58.254Z,212.23
2023-03-20T07:08:25.466Z,218.73
2023-03-20T07:10:52.417Z,218.80
2023-03-20T07:13:20.681Z,215.13
2023-03-20T07:16:03.120Z,217.37
2023-03-20T07:18:35.506Z,221.57
2023-03-20T07:21:05.383Z,225.07
2023-03-20T07:23:34.570Z,226.97
2023-03-20T07:26:03.599Z,223.10
2023-03-20T07:28:31.027Z,230.23
2023-03-20T07:31:23.937Z,224.20
2023-03-20T07:33:58.158Z,223.90
2023-03-20T07:36:25.789Z,233.83
2023-03-20T07:38:52.799Z,239.07
2023-03-20T07:41:19.824Z,232.10
2023-03-20T07:43:57.340Z,293.70
2023-03-20T07:46:35.072Z,314.13
2023-03-20T07:49:02.443Z,288.17
2023-03-20T07:51:29.418Z,256.27
2023-03-20T07:53:56.934Z,252.10
2023-03-20T07:56:23.938Z,246.97
2023-03-20T07:58:51.020Z,249.60
2023-03-20T08:01:18.076Z,255.50
2023-03-20T08:03:45.078Z,246.87
2023-03-20T08:06:12.025Z,240.80
2023-03-20T08:08:39.214Z,242.10
2023-03-20T08:11:06.594Z,253.00
2023-03-20T08:13:33.606Z,245.70
2023-03-20T08:16:00.927Z,241.03
2023-03-20T08:18:28.176Z,241.20
2023-03-20T08:20:55.385Z,230.90
2023-03-20T08:23:22.389Z,251.97
2023-03-20T08:25:51.101Z,245.20
2023-03-20T08:28:18.672Z,242.80
2023-03-20T08:30:46.051Z,242.65
2023-03-20T08:33:14.595Z,234.37
2023-03-20T08:35:42.077Z,239.10
2023-03-20T08:38:13.490Z,232.77
2023-03-20T08:40:43.605Z,231.30
2023-03-20T08:43:10.607Z,238.30
2023-03-20T08:45:38.032Z,234.25
2023-03-20T08:48:05.281Z,238.77
2023-03-20T08:50:32.341Z,234.03
2023-03-20T08:52:59.276Z,225.97
2023-03-20T08:55:26.619Z,234.80
2023-03-20T08:57:54.542Z,236.07
2023-03-20T09:00:25.717Z,234.83
2023-03-20T09:02:52.682Z,231.80
2023-03-20T09:05:19.647Z,235.25
2023-03-20T09:07:46.701Z,232.77
2023-03-20T09:10:13.812Z,231.25
2023-03-20T09:12:40.883Z,244.40
2023-03-20T09:15:08.635Z,246.02
2023-03-20T09:17:35.904Z,233.60
2023-03-20T09:20:04.041Z,229.63
2023-03-20T09:22:31.375Z,232.40
2023-03-20T09:24:58.289Z,230.40
2023-03-20T09:27:25.281Z,126.28
2023-03-20T09:29:52.224Z,158.90
2023-03-20T09:32:19.322Z,149.93
2023-03-20T09:34:46.628Z,148.05
2023-03-20T09:37:13.619Z,169.35
2023-03-20T09:39:40.721Z,198.85
2023-03-20T09:42:31.752Z,197.35
2023-03-20T09:45:11.537Z,193.98
2023-03-20T09:48:07.455Z,192.68
2023-03-20T09:50:46.389Z,113.95
2023-03-20T09:53:26.807Z,68.90
2023-03-20T09:55:56.003Z,158.93
2023-03-20T09:58:30.350Z,199.23
2023-03-20T10:01:00.530Z,183.23
2023-03-20T10:03:43.187Z,174.07
2023-03-20T10:06:16.711Z,171.43
2023-03-20T10:08:45.650Z,179.25
2023-03-20T10:11:31.153Z,190.38
2023-03-20T10:14:29.236Z,186.68
2023-03-20T10:17:26.372Z,184.25
2023-03-20T10:20:26.466Z,217.93
2023-03-20T10:23:07.702Z,194.18
2023-03-20T10:25:42.123Z,198.07
2023-03-20T10:28:17.905Z,218.02
2023-03-20T10:31:26.392Z,228.88
2023-03-20T10:34:02.611Z,230.98
2023-03-20T10:36:41.442Z,248.25
2023-03-20T10:39:56.294Z,237.85
2023-03-20T10:42:39.742Z,245.55
2023-03-20T10:45:34.231Z,248.45
2023-03-20T10:48:10.036Z,249.82
2023-03-20T10:50:45.542Z,246.77
2023-03-20T10:53:29.404Z,247.60
2023-03-20T10:56:02.351Z,237.25
2023-03-20T10:58:37.467Z,241.63
2023-03-20T11:01:05.152Z,250.63
2023-03-20T11:03:34.211Z,246.18
2023-03-20T11:06:10.088Z,247.20
2023-03-20T11:08:43.317Z,236.18
2023-03-20T11:11:10.728Z,186.48
2023-03-20T11:13:43.934Z,218.65
2023-03-20T11:16:19.508Z,228.82
2023-03-20T11:18:49.406Z,221.25
2023-03-20T11:21:31.598Z,217.65
2023-03-20T11:23:58.692Z,220.23
2023-03-20T11:26:38.065Z,233.60
2023-03-20T11:29:24.603Z,234.15
2023-03-20T11:31:52.005Z,216.02
2023-03-20T11:34:18.949Z,197.75
2023-03-20T11:37:09.683Z,211.90
2023-03-20T11:39:39.963Z,210.35
2023-03-20T11:42:24.792Z,197.20
2023-03-20T11:44:59.509Z,246.43
2023-03-20T11:47:29.000Z,232.63
2023-03-20T11:49:59.793Z,239.75
2023-03-20T11:52:35.620Z,245.50
2023-03-20T11:55:08.164Z,250.13
2023-03-20T11:57:40.438Z,253.50
2023-03-20T12:00:20.839Z,263.95
2023-03-20T12:02:48.145Z,265.85
2023-03-20T12:05:33.750Z,251.45
2023-03-20T12:08:13.093Z,258.23
2023-03-20T12:10:44.676Z,256.75
2023-03-20T12:13:25.056Z,265.73
2023-03-20T12:15:59.944Z,248.10
2023-03-20T12:18:43.549Z,248.55
2023-03-20T12:21:43.610Z,248.60
2023-03-20T12:24:38.144Z,247.13
2023-03-20T12:27:22.988Z,245.88
2023-03-20T12:30:00.696Z,243.10
2023-03-20T12:33:40.214Z,241.52
2023-03-20T12:36:16.509Z,242.90
2023-03-20T12:38:44.306Z,244.30
2023-03-20T12:41:30.548Z,240.38
2023-03-20T12:44:40.603Z,242.40
2023-03-20T12:47:29.764Z,235.48
2023-03-20T12:50:02.433Z,238.88
2023-03-20T12:52:57.392Z,232.23
2023-03-20T12:55:35.518Z,234.18
2023-03-20T12:58:05.389Z,231.40
2023-03-20T13:00:45.903Z,232.38
2023-03-20T13:04:00.283Z,235.52
2023-03-20T13:06:54.952Z,236.10
2023-03-20T13:09:52.194Z,233.65
2023-03-20T13:12:43.074Z,235.88
2023-03-20T13:16:00.627Z,242.85
2023-03-20T13:18:43.146Z,237.93
2023-03-20T13:21:55.365Z,237.45
2023-03-20T13:24:51.059Z,246.75
2023-03-20T13:27:42.918Z,246.18
2023-03-20T13:30:33.374Z,237.90
2023-03-20T13:33:30.166Z,248.93
2023-03-20T13:36:25.388Z,248.48
2023-03-20T13:39:05.977Z,247.15
2023-03-20T13:41:34.950Z,252.30
2023-03-20T13:44:04.867Z,251.98
2023-03-20T13:46:52.067Z,288.65
2023-03-20T13:49:31.156Z,233.07
2023-03-20T13:52:17.025Z,238.88
2023-03-20T13:55:16.239Z,222.30
2023-03-20T13:58:04.521Z,234.35
2023-03-20T14:00:39.643Z,235.93
2023-03-20T14:03:34.804Z,225.30
2023-03-20T14:06:16.361Z,234.95
2023-03-20T14:09:03.818Z,247.15
2023-03-20T14:11:37.008Z,239.80
2023-03-20T14:14:18.232Z,240.98
2023-03-20T14:16:45.932Z,239.23
2023-03-20T14:19:21.684Z,243.43
2023-03-20T14:21:54.403Z,238.15
2023-03-20T14:24:24.147Z,239.00
2023-03-20T14:26:57.257Z,239.32
2023-03-20T14:29:30.282Z,239.93
2023-03-20T14:32:17.105Z,343.48
2023-03-20T14:35:00.373Z,238.40
2023-03-20T14:37:33.387Z,242.82
2023-03-20T14:40:15.407Z,239.85
2023-03-20T14:43:12.854Z,247.98
2023-03-20T14:45:52.575Z,244.73
2023-03-20T14:48:35.892Z,245.02
2023-03-20T14:51:45.950Z,242.15
2023-03-20T14:54:23.716Z,247.13
2023-03-20T14:56:52.298Z,248.25
2023-03-20T14:59:24.164Z,239.75
2023-03-20T15:01:58.345Z,247.00
2023-03-20T15:04:42.174Z,241.88
2023-03-20T15:07:16.075Z,248.60
2023-03-20T15:09:50.309Z,241.82
2023-03-20T15:12:23.492Z,249.38
2023-03-20T15:15:02.089Z,239.88
2023-03-20T15:17:38.355Z,243.02
2023-03-20T15:20:37.823Z,242.27
2023-03-20T15:23:06.198Z,241.65
2023-03-20T15:25:38.765Z,239.30
2023-03-20T15:28:08.000Z,225.63
2023-03-20T15:30:39.071Z,239.88
2023-03-20T15:33:10.502Z,233.70
2023-03-20T15:35:38.974Z,137.90
2023-03-20T15:38:07.835Z,39.15
2023-03-20T15:40:50.456Z,260.25
2023-03-20T15:43:26.460Z,377.52
2023-03-20T15:46:16.317Z,351.23
2023-03-20T15:48:50.374Z,683.35
2023-03-20T15:51:19.341Z,576.95
2023-03-20T15:53:48.575Z,374.20
2023-03-20T15:56:19.911Z,299.45
2023-03-20T15:58:52.432Z,505.42
2023-03-20T16:01:23.147Z,236.43
2023-03-20T16:03:51.986Z,315.73
2023-03-20T16:06:22.184Z,355.92
2023-03-20T16:09:07.033Z,400.45
2023-03-20T16:11:41.682Z,338.67
2023-03-20T16:14:24.802Z,225.87
2023-03-20T16:16:54.750Z,435.53
2023-03-20T16:19:22.178Z,225.87
2023-03-20T16:21:59.820Z,226.13
2023-03-20T16:24:35.916Z,236.70
2023-03-20T16:27:08.576Z,223.90
2023-03-20T16:29:37.517Z,236.77
2023-03-20T16:32:31.114Z,432.67
2023-03-20T16:35:01.390Z,331.45
2023-03-20T16:37:32.449Z,348.85
2023-03-20T16:40:33.101Z,401.40
2023-03-20T16:43:17.094Z,338.70
2023-03-20T16:45:54.969Z,395.30
2023-03-20T16:48:33.288Z,477.10
2023-03-20T16:51:16.570Z,250.63
2023-03-20T16:53:49.922Z,252.37
2023-03-20T16:56:29.697Z,247.37
2023-03-20T16:58:57.251Z,362.08
2023-03-20T17:01:28.045Z,322.67
2023-03-20T17:03:58.661Z,374.77
2023-03-20T17:06:35.566Z,370.25
2023-03-20T17:09:27.174Z,339.50
2023-03-20T17:12:14.573Z,367.25
2023-03-20T17:14:41.716Z,286.75
2023-03-20T17:17:21.324Z,340.02
2023-03-20T17:19:53.128Z,352.02
2023-03-20T17:22:26.045Z,337.27
2023-03-20T17:24:53.088Z,106.95
2023-03-20T17:27:21.071Z,121.45
2023-03-20T17:29:52.079Z,188.80
2023-03-20T17:32:23.845Z,185.30
2023-03-20T17:34:51.282Z,257.83
2023-03-20T17:37:29.808Z,185.05
2023-03-20T17:39:57.736Z,233.00
2023-03-20T17:42:31.366Z,183.38
2023-03-20T17:45:00.545Z,160.60
2023-03-20T17:47:29.435Z,246.02
2023-03-20T17:49:56.414Z,242.30
2023-03-20T17:52:28.740Z,231.43
2023-03-20T17:54:56.216Z,239.30
2023-03-20T17:57:34.262Z,237.47
2023-03-20T18:00:02.379Z,239.97
2023-03-20T18:02:31.292Z,251.00
2023-03-20T18:04:58.214Z,232.53
2023-03-20T18:07:25.327Z,246.60
2023-03-20T18:09:52.289Z,255.43
2023-03-20T18:12:21.037Z,255.13
2023-03-20T18:14:48.025Z,243.13
2023-03-20T18:17:15.933Z,238.93
2023-03-20T18:19:43.955Z,247.20
2023-03-20T18:22:11.713Z,250.47
2023-03-20T18:24:44.034Z,254.00
2023-03-20T18:27:12.323Z,251.80
2023-03-20T18:29:39.374Z,256.83
2023-03-20T18:32:06.333Z,242.07
2023-03-20T18:34:33.314Z,256.33
2023-03-20T18:37:00.389Z,249.87
2023-03-20T18:39:27.567Z,246.30
2023-03-20T18:41:54.824Z,250.10
2023-03-20T18:44:22.411Z,245.67
2023-03-20T18:46:49.417Z,258.50
2023-03-20T18:49:19.683Z,253.70
2023-03-20T18:51:46.834Z,253.23
2023-03-20T18:54:13.868Z,239.27
2023-03-20T18:56:41.084Z,262.83
2023-03-20T18:59:10.522Z,238.17
2023-03-20T19:01:37.546Z,253.97
2023-03-20T19:04:04.735Z,237.43
2023-03-20T19:06:32.375Z,245.17
2023-03-20T19:09:06.028Z,228.60
2023-03-20T19:11:33.058Z,221.30
2023-03-20T19:14:00.040Z,221.27
2023-03-20T19:16:34.959Z,230.27
2023-03-20T19:19:05.471Z,219.60
2023-03-20T19:21:34.149Z,276.13
2023-03-20T19:24:06.341Z,235.17
2023-03-20T19:26:36.612Z,239.43
2023-03-20T19:29:10.511Z,242.17
2023-03-20T19:31:37.692Z,250.67
2023-03-20T19:34:05.466Z,243.07
2023-03-20T19:36:36.873Z,223.00
2023-03-20T19:39:07.827Z,226.70
2023-03-20T19:41:34.891Z,229.30
2023-03-20T19:44:01.865Z,229.20
2023-03-20T19:46:39.607Z,149.67
2023-03-20T19:49:30.229Z,158.73
2023-03-20T19:51:57.812Z,196.67
2023-03-20T19:54:24.844Z,236.00
2023-03-20T19:56:51.821Z,209.55
2023-03-20T19:59:18.763Z,228.67
2023-03-20T20:01:46.177Z,265.63
2023-03-20T20:04:13.757Z,233.17
2023-03-20T20:06:41.834Z,234.13
2023-03-20T20:09:09.207Z,226.83
2023-03-20T20:11:36.164Z,230.77
2023-03-20T20:14:07.626Z,204.63
2023-03-20T20:16:37.028Z,206.03
2023-03-20T20:19:04.429Z,231.13
2023-03-20T20:24:18.973Z,249.13
2023-03-20T20:27:11.560Z,256.73
2023-03-20T20:29:41.535Z,240.10
2023-03-20T20:32:08.620Z,230.33
2023-03-20T20:40:14.765Z,220.10
2023-03-20T20:42:43.201Z,204.97
2023-03-20T20:45:14.663Z,234.07
2023-03-20T20:47:45.907Z,226.63
2023-03-20T20:50:17.955Z,183.73
2023-03-20T20:52:45.504Z,214.27
2023-03-20T20:55:23.171Z,220.57
2023-03-20T20:57:55.755Z,215.97
2023-03-20T21:00:37.207Z,198.60
2023-03-20T21:03:12.222Z,189.60
2023-03-20T21:05:42.853Z,206.80
2023-03-20T21:08:12.027Z,204.30
2023-03-20T21:10:39.850Z,207.60
2023-03-20T21:13:08.294Z,213.43
2023-03-20T21:15:35.743Z,203.10
2023-03-20T21:18:03.102Z,182.53
2023-03-20T21:20:31.964Z,155.47
2023-03-20T21:22:59.503Z,152.43
2023-03-20T21:25:39.119Z,165.40
2023-03-20T21:28:07.761Z,160.35
2023-03-20T21:30:34.765Z,226.63
2023-03-20T21:33:03.109Z,210.97
2023-03-20T21:35:30.470Z,208.17
2023-03-20T21:38:47.487Z,192.37
2023-03-20T21:40:45.015Z,190.80
2023-03-20T21:43:13.241Z,143.83
2023-03-20T21:49:12.761Z,127.75
2023-03-20T22:00:19.137Z,168.00
2023-03-20T22:02:29.048Z,170.03
2023-03-20T22:05:41.868Z,146.43
2023-03-20T22:08:48.651Z,198.03
2023-03-20T22:20:44.916Z,182.30
2023-03-20T22:22:55.270Z,217.23
2023-03-20T22:46:54.520Z,213.67
2023-03-20T22:49:21.489Z,211.80
2023-03-20T22:52:07.720Z,219.00
2023-03-20T22:54:35.974Z,290.53
2023-03-20T22:57:03.144Z,217.90
2023-03-20T22:59:30.300Z,204.27
2023-03-20T23:01:57.303Z,178.63
2023-03-20T23:04:24.350Z,214.47
2023-03-20T23:06:51.292Z,208.60
2023-03-20T23:09:18.375Z,220.93
2023-03-20T23:11:45.615Z,202.67
2023-03-20T23:14:21.293Z,220.57
2023-03-20T23:16:49.938Z,234.53
2023-03-20T23:19:17.031Z,224.57
2023-03-20T23:21:44.010Z,218.43
2023-03-20T23:24:11.286Z,209.70
2023-03-20T23:26:38.287Z,200.43
2023-03-20T23:29:05.786Z,216.73
2023-03-20T23:31:32.843Z,209.83
2023-03-20T23:33:59.946Z,215.93
2023-03-20T23:36:42.878Z,242.13
2023-03-20T23:39:12.048Z,235.67
2023-03-20T23:42:08.391Z,208.63
2023-03-20T23:44:26.405Z,182.37
2023-03-20T23:46:54.662Z,185.67
2023-03-20T23:49:22.224Z,207.20
2023-03-20T23:51:49.264Z,214.77
2023-03-20T23:54:16.218Z,206.80
2023-03-20T23:56:43.223Z,215.03
2023-03-20T23:59:25.498Z,211.23
